Impacts TAF Board
For situational awareness. Not to be used for flight planning purposes.
IDs:

KFLL - Ft Lauderdale-Hollyw, FL, US

Issued at 2320 UTC 19 Jan 2022
Updated at 0236 UTC 20 Jan 2022
Potential Impact None Slight Moderate High
Time<<20/15Z 20/16Z 20/17Z 20/18Z 20/19Z 20/20Z 20/21Z 20/22Z 20/23Z 21/00Z 21/01Z 21/02Z 21/03Z>>
Type PRVL PRVL PRVL PRVL PRVL PRVL PRVL PRVL PRVL PRVL PRVL PRVL PRVL
VIS >6 >6 >6 >6 >6 >6 >6 >6 >6 >6 >6 >6 >6
CIG 50 50 50 50 50 45 45 45 45 45 45 45 45
Cover BKN BKN BKN BKN BKN BKN BKN BKN BKN BKN BKN BKN BKN
FltCat VFR VFR VFR VFR VFR VFR VFR VFR VFR VFR VFR VFR VFR
WX -- -- -- -- -- VCSH VCSH VCSH VCSH VCSH VCSH VCSH VCSH
WDir 150 150 150 150 150 140 140 140 140 140 140 140 140
WSpd 9 9 9 9 9 10 10 10 10 10 10 10 10
WGst -- -- -- -- -- -- -- -- -- -- -- -- --
WSHgt -- -- -- -- -- -- -- -- -- -- -- -- --
WSDir -- -- -- -- -- -- -- -- -- -- -- -- --
WSSpd -- -- -- -- -- -- -- -- -- -- -- -- --
Raw TAF
KFLL 192320Z 2000/2106 13005KT P6SM SCT040 BKN060
  FM200200 13006KT P6SM SCT040
  FM201500 15009KT P6SM SCT030 BKN050
  FM202000 14010KT P6SM VCSH SCT025 BKN045


METAR Board
Radar Display
Forecast Discussion
For situational awareness. Not to be used for flight planning purposes.